Terminal Aerodrome Forecast
Issued by NWS

Home | Current Version | Previous Version | Text Only | Print | Product List | Glossary On
Versions: 1 2 3 4 5 6 7 8 9 10 11 12 13
000
FTUS45 KBYZ 271120
TAFLVM
TAF
KLVM 271120Z 2712/2812 32007KT P6SM BKN200
     FM271400 23009KT P6SM BKN120
     FM271800 26014G24KT P6SM BKN120
     FM280200 22008KT P6SM SCT120
     FM280900 26008KT P6SM FEW120=

USA.gov is the U.S. government's official web portal to all federal, state and local government web resources and services.